Search for airport 
image banner adimage banner adimage banner ad
image banner ad

29CN - Miller's Mother Lode

Located in Georgetown, United States

ICAO - 29CN, IATA -

Data provided by Airmate  

General information

Coordinates: N38°50'60" W120°50'4"
Elevation is 2400 feet MSL.
Magnetic variation is 16° East
View others Airports in California

Operational data

Special qualification required
Current time UTC:
Current local time:
Weather at : KPVF - Placerville ( 16 km )
METAR: KPVF 231455Z AUTO 11007KT 3SM CLR 22/01 A3004 RMK AO1
View NOTAMs / SUP AIP / TFR affecting this airport [VIEW]
Communications frequencies: [VIEW]

Runways:

RWY identifierQFULength (ft)Width (ft)SurfaceLDA (ft)
17130060EARTH
35130060EARTH

Airport contact information

Address: Georgetown United States

Satellite view of 29CN